sensor_id;sensor_type;location;lat;lon;timestamp;P1;durP1;ratioP1;P2;durP2;ratioP2
17175;SDS011;8703;48.996;9.594;2023-07-31T00:01:39;6.20;;;2.20;;
17175;SDS011;8703;48.996;9.594;2023-07-31T00:04:06;4.13;;;2.10;;
17175;SDS011;8703;48.996;9.594;2023-07-31T00:06:35;9.10;;;2.47;;
17175;SDS011;8703;48.996;9.594;2023-07-31T00:09:02;8.07;;;2.20;;
17175;SDS011;8703;48.996;9.594;2023-07-31T00:11:29;4.95;;;2.10;;
17175;SDS011;8703;48.996;9.594;2023-07-31T00:13:57;8.77;;;2.65;;
17175;SDS011;8703;48.996;9.594;2023-07-31T00:16:25;4.85;;;2.30;;
17175;SDS011;8703;48.996;9.594;2023-07-31T00:18:52;6.28;;;2.80;;
17175;SDS011;8703;48.996;9.594;2023-07-31T00:21:19;3.35;;;2.20;;
17175;SDS011;8703;48.996;9.594;2023-07-31T00:23:48;6.20;;;1.97;;
17175;SDS011;8703;48.996;9.594;2023-07-31T00:26:15;4.78;;;2.45;;
17175;SDS011;8703;48.996;9.594;2023-07-31T00:28:43;7.65;;;2.10;;
17175;SDS011;8703;48.996;9.594;2023-07-31T00:31:10;4.13;;;2.10;;
17175;SDS011;8703;48.996;9.594;2023-07-31T00:33:37;5.63;;;2.20;;
17175;SDS011;8703;48.996;9.594;2023-07-31T00:36:05;4.28;;;1.98;;
17175;SDS011;8703;48.996;9.594;2023-07-31T00:38:32;5.43;;;2.30;;
17175;SDS011;8703;48.996;9.594;2023-07-31T00:41:01;6.85;;;2.10;;
17175;SDS011;8703;48.996;9.594;2023-07-31T00:43:28;6.43;;;2.00;;
17175;SDS011;8703;48.996;9.594;2023-07-31T00:45:55;4.13;;;2.10;;
17175;SDS011;8703;48.996;9.594;2023-07-31T00:48:23;6.55;;;2.15;;
17175;SDS011;8703;48.996;9.594;2023-07-31T00:50:50;4.72;;;2.20;;
17175;SDS011;8703;48.996;9.594;2023-07-31T00:53:18;8.88;;;2.40;;
17175;SDS011;8703;48.996;9.594;2023-07-31T00:55:45;3.50;;;2.13;;
17175;SDS011;8703;48.996;9.594;2023-07-31T00:58:14;4.35;;;2.00;;
17175;SDS011;8703;48.996;9.594;2023-07-31T01:00:41;7.57;;;2.10;;
17175;SDS011;8703;48.996;9.594;2023-07-31T01:03:09;6.90;;;2.10;;
17175;SDS011;8703;48.996;9.594;2023-07-31T01:05:38;2.83;;;1.90;;
17175;SDS011;8703;48.996;9.594;2023-07-31T01:08:11;3.90;;;2.00;;
17175;SDS011;8703;48.996;9.594;2023-07-31T01:10:45;8.57;;;2.40;;
17175;SDS011;8703;48.996;9.594;2023-07-31T01:13:16;5.27;;;2.03;;
17175;SDS011;8703;48.996;9.594;2023-07-31T01:15:44;4.25;;;1.95;;
17175;SDS011;8703;48.996;9.594;2023-07-31T01:18:11;5.87;;;2.10;;
17175;SDS011;8703;48.996;9.594;2023-07-31T01:20:39;4.27;;;2.40;;
17175;SDS011;8703;48.996;9.594;2023-07-31T01:23:21;5.60;;;2.17;;
17175;SDS011;8703;48.996;9.594;2023-07-31T01:26:02;3.47;;;2.20;;
17175;SDS011;8703;48.996;9.594;2023-07-31T01:28:33;7.23;;;2.33;;
17175;SDS011;8703;48.996;9.594;2023-07-31T01:31:07;7.13;;;2.17;;
17175;SDS011;8703;48.996;9.594;2023-07-31T01:33:35;5.83;;;2.30;;
17175;SDS011;8703;48.996;9.594;2023-07-31T01:36:03;7.60;;;2.40;;
17175;SDS011;8703;48.996;9.594;2023-07-31T01:38:31;6.90;;;2.55;;
17175;SDS011;8703;48.996;9.594;2023-07-31T01:41:00;4.80;;;2.30;;
17175;SDS011;8703;48.996;9.594;2023-07-31T01:43:27;7.57;;;2.30;;
17175;SDS011;8703;48.996;9.594;2023-07-31T01:45:55;8.47;;;2.40;;
17175;SDS011;8703;48.996;9.594;2023-07-31T01:48:22;7.07;;;2.50;;
17175;SDS011;8703;48.996;9.594;2023-07-31T01:50:49;5.17;;;2.50;;
17175;SDS011;8703;48.996;9.594;2023-07-31T01:53:17;5.70;;;2.47;;
17175;SDS011;8703;48.996;9.594;2023-07-31T01:55:44;7.07;;;2.37;;
17175;SDS011;8703;48.996;9.594;2023-07-31T01:58:13;6.20;;;2.20;;
17175;SDS011;8703;48.996;9.594;2023-07-31T02:00:40;6.60;;;2.30;;
17175;SDS011;8703;48.996;9.594;2023-07-31T02:03:07;6.70;;;2.37;;
17175;SDS011;8703;48.996;9.594;2023-07-31T02:05:35;7.20;;;2.27;;
17175;SDS011;8703;48.996;9.594;2023-07-31T02:08:02;4.90;;;2.07;;
17175;SDS011;8703;48.996;9.594;2023-07-31T02:10:29;4.33;;;2.23;;
17175;SDS011;8703;48.996;9.594;2023-07-31T02:12:57;3.70;;;2.30;;
17175;SDS011;8703;48.996;9.594;2023-07-31T02:15:26;5.43;;;2.33;;
17175;SDS011;8703;48.996;9.594;2023-07-31T02:17:53;5.17;;;2.30;;
17175;SDS011;8703;48.996;9.594;2023-07-31T02:20:20;8.83;;;2.30;;
17175;SDS011;8703;48.996;9.594;2023-07-31T02:22:48;4.53;;;2.20;;
17175;SDS011;8703;48.996;9.594;2023-07-31T02:25:15;7.30;;;2.10;;
17175;SDS011;8703;48.996;9.594;2023-07-31T02:27:42;6.97;;;2.20;;
17175;SDS011;8703;48.996;9.594;2023-07-31T02:30:10;5.80;;;2.47;;
17175;SDS011;8703;48.996;9.594;2023-07-31T02:32:39;3.90;;;2.20;;
17175;SDS011;8703;48.996;9.594;2023-07-31T02:35:07;5.33;;;2.30;;
17175;SDS011;8703;48.996;9.594;2023-07-31T02:37:35;3.27;;;2.10;;
17175;SDS011;8703;48.996;9.594;2023-07-31T02:40:03;4.37;;;2.37;;
17175;SDS011;8703;48.996;9.594;2023-07-31T02:42:31;4.77;;;2.20;;
17175;SDS011;8703;48.996;9.594;2023-07-31T02:44:58;7.83;;;2.30;;
17175;SDS011;8703;48.996;9.594;2023-07-31T02:47:26;5.57;;;2.37;;
17175;SDS011;8703;48.996;9.594;2023-07-31T02:49:55;7.43;;;2.20;;
17175;SDS011;8703;48.996;9.594;2023-07-31T02:52:22;5.20;;;2.20;;
17175;SDS011;8703;48.996;9.594;2023-07-31T02:54:50;7.67;;;2.20;;
17175;SDS011;8703;48.996;9.594;2023-07-31T02:57:17;4.63;;;2.10;;
17175;SDS011;8703;48.996;9.594;2023-07-31T02:59:44;7.63;;;2.43;;
17175;SDS011;8703;48.996;9.594;2023-07-31T03:02:12;5.77;;;2.40;;
17175;SDS011;8703;48.996;9.594;2023-07-31T03:04:39;5.53;;;2.40;;
17175;SDS011;8703;48.996;9.594;2023-07-31T03:07:08;6.27;;;2.40;;
17175;SDS011;8703;48.996;9.594;2023-07-31T03:09:35;7.70;;;2.33;;
17175;SDS011;8703;48.996;9.594;2023-07-31T03:12:02;8.87;;;2.40;;
17175;SDS011;8703;48.996;9.594;2023-07-31T03:14:30;8.27;;;2.20;;
17175;SDS011;8703;48.996;9.594;2023-07-31T03:16:59;3.43;;;2.13;;
17175;SDS011;8703;48.996;9.594;2023-07-31T03:19:26;4.57;;;2.53;;
17175;SDS011;8703;48.996;9.594;2023-07-31T03:21:56;6.80;;;2.40;;
17175;SDS011;8703;48.996;9.594;2023-07-31T03:24:24;5.63;;;2.33;;
17175;SDS011;8703;48.996;9.594;2023-07-31T03:26:52;3.13;;;2.10;;
17175;SDS011;8703;48.996;9.594;2023-07-31T03:29:19;4.30;;;2.10;;
17175;SDS011;8703;48.996;9.594;2023-07-31T03:31:46;6.57;;;2.23;;
17175;SDS011;8703;48.996;9.594;2023-07-31T03:34:14;8.37;;;2.60;;
17175;SDS011;8703;48.996;9.594;2023-07-31T03:36:41;4.03;;;2.57;;
17175;SDS011;8703;48.996;9.594;2023-07-31T03:39:09;7.10;;;2.37;;
17175;SDS011;8703;48.996;9.594;2023-07-31T03:41:38;5.30;;;2.50;;
17175;SDS011;8703;48.996;9.594;2023-07-31T03:44:05;6.23;;;2.10;;
17175;SDS011;8703;48.996;9.594;2023-07-31T03:46:32;5.57;;;2.63;;
17175;SDS011;8703;48.996;9.594;2023-07-31T03:49:01;6.70;;;2.17;;
17175;SDS011;8703;48.996;9.594;2023-07-31T03:51:28;6.13;;;2.90;;
17175;SDS011;8703;48.996;9.594;2023-07-31T03:53:55;4.67;;;2.70;;
17175;SDS011;8703;48.996;9.594;2023-07-31T03:56:23;5.80;;;2.60;;
17175;SDS011;8703;48.996;9.594;2023-07-31T03:58:51;10.83;;;2.70;;
17175;SDS011;8703;48.996;9.594;2023-07-31T04:01:19;4.50;;;2.37;;
17175;SDS011;8703;48.996;9.594;2023-07-31T04:03:47;6.23;;;2.40;;
17175;SDS011;8703;48.996;9.594;2023-07-31T04:06:14;4.37;;;2.50;;
17175;SDS011;8703;48.996;9.594;2023-07-31T04:08:43;6.27;;;2.60;;
17175;SDS011;8703;48.996;9.594;2023-07-31T04:11:10;8.07;;;3.00;;
17175;SDS011;8703;48.996;9.594;2023-07-31T04:13:38;4.83;;;2.80;;
17175;SDS011;8703;48.996;9.594;2023-07-31T04:16:06;5.00;;;2.50;;
17175;SDS011;8703;48.996;9.594;2023-07-31T04:18:34;4.77;;;2.30;;
17175;SDS011;8703;48.996;9.594;2023-07-31T04:21:01;6.40;;;2.40;;
17175;SDS011;8703;48.996;9.594;2023-07-31T04:23:28;5.53;;;2.63;;
17175;SDS011;8703;48.996;9.594;2023-07-31T04:25:56;4.57;;;2.20;;
17175;SDS011;8703;48.996;9.594;2023-07-31T04:28:23;6.60;;;2.53;;
17175;SDS011;8703;48.996;9.594;2023-07-31T04:30:51;4.87;;;2.60;;
17175;SDS011;8703;48.996;9.594;2023-07-31T04:33:20;5.17;;;2.47;;
17175;SDS011;8703;48.996;9.594;2023-07-31T04:35:50;5.93;;;2.40;;
17175;SDS011;8703;48.996;9.594;2023-07-31T04:38:18;4.73;;;2.50;;
17175;SDS011;8703;48.996;9.594;2023-07-31T04:40:46;6.03;;;2.57;;
17175;SDS011;8703;48.996;9.594;2023-07-31T04:43:13;7.93;;;2.57;;
17175;SDS011;8703;48.996;9.594;2023-07-31T04:45:42;8.73;;;2.50;;
17175;SDS011;8703;48.996;9.594;2023-07-31T04:48:12;6.73;;;2.30;;
17175;SDS011;8703;48.996;9.594;2023-07-31T04:50:40;7.00;;;2.90;;
17175;SDS011;8703;48.996;9.594;2023-07-31T04:53:08;5.10;;;2.60;;
17175;SDS011;8703;48.996;9.594;2023-07-31T04:55:35;5.43;;;2.60;;
17175;SDS011;8703;48.996;9.594;2023-07-31T04:58:02;7.53;;;2.80;;
17175;SDS011;8703;48.996;9.594;2023-07-31T05:00:30;8.03;;;2.80;;
17175;SDS011;8703;48.996;9.594;2023-07-31T05:02:57;10.03;;;3.10;;
17175;SDS011;8703;48.996;9.594;2023-07-31T05:05:24;7.50;;;2.60;;
17175;SDS011;8703;48.996;9.594;2023-07-31T05:07:53;7.00;;;2.90;;
17175;SDS011;8703;48.996;9.594;2023-07-31T05:10:20;8.37;;;2.67;;
17175;SDS011;8703;48.996;9.594;2023-07-31T05:12:48;4.63;;;2.57;;
17175;SDS011;8703;48.996;9.594;2023-07-31T05:15:15;6.07;;;2.67;;
17175;SDS011;8703;48.996;9.594;2023-07-31T05:17:43;3.03;;;2.30;;
17175;SDS011;8703;48.996;9.594;2023-07-31T05:20:10;4.50;;;2.60;;
17175;SDS011;8703;48.996;9.594;2023-07-31T05:22:38;5.30;;;2.90;;
17175;SDS011;8703;48.996;9.594;2023-07-31T05:25:07;8.47;;;3.27;;
17175;SDS011;8703;48.996;9.594;2023-07-31T05:27:34;3.87;;;2.77;;
17175;SDS011;8703;48.996;9.594;2023-07-31T05:30:02;6.53;;;2.63;;
17175;SDS011;8703;48.996;9.594;2023-07-31T05:32:30;19.87;;;3.50;;
17175;SDS011;8703;48.996;9.594;2023-07-31T05:34:58;6.20;;;2.50;;
17175;SDS011;8703;48.996;9.594;2023-07-31T05:37:25;4.70;;;2.65;;
17175;SDS011;8703;48.996;9.594;2023-07-31T05:39:52;9.43;;;3.22;;
17175;SDS011;8703;48.996;9.594;2023-07-31T05:42:21;8.87;;;2.90;;
17175;SDS011;8703;48.996;9.594;2023-07-31T05:44:48;7.57;;;3.10;;
17175;SDS011;8703;48.996;9.594;2023-07-31T05:47:16;6.67;;;3.00;;
17175;SDS011;8703;48.996;9.594;2023-07-31T05:49:43;13.83;;;3.03;;
17175;SDS011;8703;48.996;9.594;2023-07-31T05:52:10;13.17;;;2.70;;
17175;SDS011;8703;48.996;9.594;2023-07-31T05:54:38;5.30;;;2.50;;
17175;SDS011;8703;48.996;9.594;2023-07-31T05:57:05;8.50;;;2.58;;
17175;SDS011;8703;48.996;9.594;2023-07-31T05:59:34;6.50;;;2.60;;
17175;SDS011;8703;48.996;9.594;2023-07-31T06:02:01;5.00;;;2.80;;
17175;SDS011;8703;48.996;9.594;2023-07-31T06:04:29;5.57;;;2.67;;
17175;SDS011;8703;48.996;9.594;2023-07-31T06:06:56;5.07;;;2.70;;
17175;SDS011;8703;48.996;9.594;2023-07-31T06:09:24;5.30;;;2.57;;
17175;SDS011;8703;48.996;9.594;2023-07-31T06:11:51;5.68;;;2.47;;
17175;SDS011;8703;48.996;9.594;2023-07-31T06:14:19;4.80;;;2.70;;
17175;SDS011;8703;48.996;9.594;2023-07-31T06:16:47;7.15;;;2.78;;
17175;SDS011;8703;48.996;9.594;2023-07-31T06:19:15;5.20;;;2.67;;
17175;SDS011;8703;48.996;9.594;2023-07-31T06:21:42;5.97;;;2.70;;
17175;SDS011;8703;48.996;9.594;2023-07-31T06:24:10;5.80;;;2.60;;
17175;SDS011;8703;48.996;9.594;2023-07-31T06:26:38;6.30;;;2.60;;
17175;SDS011;8703;48.996;9.594;2023-07-31T06:29:05;5.45;;;2.50;;
17175;SDS011;8703;48.996;9.594;2023-07-31T06:31:32;6.23;;;2.30;;
17175;SDS011;8703;48.996;9.594;2023-07-31T06:34:01;7.22;;;2.70;;
17175;SDS011;8703;48.996;9.594;2023-07-31T06:36:29;5.75;;;2.10;;
17175;SDS011;8703;48.996;9.594;2023-07-31T06:38:56;6.40;;;1.90;;
17175;SDS011;8703;48.996;9.594;2023-07-31T06:41:23;5.78;;;2.00;;
17175;SDS011;8703;48.996;9.594;2023-07-31T06:43:51;4.60;;;2.42;;
17175;SDS011;8703;48.996;9.594;2023-07-31T06:46:18;5.03;;;2.40;;
17175;SDS011;8703;48.996;9.594;2023-07-31T06:48:45;4.30;;;2.35;;
17175;SDS011;8703;48.996;9.594;2023-07-31T06:51:14;7.70;;;2.20;;
17175;SDS011;8703;48.996;9.594;2023-07-31T06:53:42;4.50;;;2.15;;
17175;SDS011;8703;48.996;9.594;2023-07-31T06:56:10;6.03;;;1.95;;
17175;SDS011;8703;48.996;9.594;2023-07-31T06:58:37;5.07;;;2.03;;
17175;SDS011;8703;48.996;9.594;2023-07-31T07:01:05;3.60;;;1.83;;
17175;SDS011;8703;48.996;9.594;2023-07-31T07:03:32;6.93;;;2.00;;
17175;SDS011;8703;48.996;9.594;2023-07-31T07:06:00;3.08;;;1.75;;
17175;SDS011;8703;48.996;9.594;2023-07-31T07:08:28;4.20;;;2.08;;
17175;SDS011;8703;48.996;9.594;2023-07-31T07:10:56;4.95;;;2.05;;
17175;SDS011;8703;48.996;9.594;2023-07-31T07:13:23;5.82;;;1.75;;
17175;SDS011;8703;48.996;9.594;2023-07-31T07:15:51;7.43;;;1.90;;
17175;SDS011;8703;48.996;9.594;2023-07-31T07:18:18;4.35;;;2.10;;
17175;SDS011;8703;48.996;9.594;2023-07-31T07:20:46;3.83;;;1.90;;
17175;SDS011;8703;48.996;9.594;2023-07-31T07:23:16;3.13;;;1.65;;
17175;SDS011;8703;48.996;9.594;2023-07-31T07:25:45;3.50;;;1.85;;
17175;SDS011;8703;48.996;9.594;2023-07-31T07:28:13;5.03;;;2.00;;
17175;SDS011;8703;48.996;9.594;2023-07-31T07:30:40;4.88;;;1.90;;
17175;SDS011;8703;48.996;9.594;2023-07-31T07:33:07;4.70;;;2.00;;
17175;SDS011;8703;48.996;9.594;2023-07-31T07:35:35;4.68;;;2.28;;
17175;SDS011;8703;48.996;9.594;2023-07-31T07:38:03;4.47;;;2.17;;
17175;SDS011;8703;48.996;9.594;2023-07-31T07:40:30;5.97;;;2.05;;
17175;SDS011;8703;48.996;9.594;2023-07-31T07:42:59;4.93;;;2.00;;
17175;SDS011;8703;48.996;9.594;2023-07-31T07:45:26;6.15;;;2.20;;
17175;SDS011;8703;48.996;9.594;2023-07-31T07:47:53;5.38;;;2.28;;
17175;SDS011;8703;48.996;9.594;2023-07-31T07:50:21;5.45;;;2.13;;
17175;SDS011;8703;48.996;9.594;2023-07-31T07:52:48;4.15;;;2.40;;
17175;SDS011;8703;48.996;9.594;2023-07-31T07:55:15;5.60;;;2.13;;
17175;SDS011;8703;48.996;9.594;2023-07-31T07:57:43;5.28;;;2.30;;
17175;SDS011;8703;48.996;9.594;2023-07-31T08:00:12;4.93;;;2.22;;
17175;SDS011;8703;48.996;9.594;2023-07-31T08:02:39;5.53;;;2.30;;
17175;SDS011;8703;48.996;9.594;2023-07-31T08:05:07;5.47;;;2.20;;
17175;SDS011;8703;48.996;9.594;2023-07-31T08:07:34;8.68;;;2.58;;
17175;SDS011;8703;48.996;9.594;2023-07-31T08:10:02;4.90;;;2.45;;
17175;SDS011;8703;48.996;9.594;2023-07-31T08:12:29;7.10;;;2.58;;
17175;SDS011;8703;48.996;9.594;2023-07-31T08:14:57;4.57;;;2.10;;
17175;SDS011;8703;48.996;9.594;2023-07-31T08:17:26;6.07;;;2.35;;
17175;SDS011;8703;48.996;9.594;2023-07-31T08:19:53;5.47;;;2.10;;
17175;SDS011;8703;48.996;9.594;2023-07-31T08:22:23;7.40;;;2.42;;
17175;SDS011;8703;48.996;9.594;2023-07-31T08:24:51;5.53;;;2.28;;
17175;SDS011;8703;48.996;9.594;2023-07-31T08:27:18;5.20;;;2.50;;
17175;SDS011;8703;48.996;9.594;2023-07-31T08:29:45;6.28;;;2.42;;
17175;SDS011;8703;48.996;9.594;2023-07-31T08:32:13;6.68;;;2.22;;
17175;SDS011;8703;48.996;9.594;2023-07-31T08:34:41;5.68;;;2.13;;
17175;SDS011;8703;48.996;9.594;2023-07-31T08:37:09;5.60;;;2.55;;
17175;SDS011;8703;48.996;9.594;2023-07-31T08:39:37;5.88;;;2.08;;
17175;SDS011;8703;48.996;9.594;2023-07-31T08:42:07;4.85;;;2.40;;
17175;SDS011;8703;48.996;9.594;2023-07-31T08:44:35;5.70;;;2.25;;
17175;SDS011;8703;48.996;9.594;2023-07-31T08:47:03;6.57;;;2.20;;
17175;SDS011;8703;48.996;9.594;2023-07-31T08:49:31;5.10;;;2.33;;
17175;SDS011;8703;48.996;9.594;2023-07-31T08:52:00;4.82;;;2.35;;
17175;SDS011;8703;48.996;9.594;2023-07-31T08:54:27;4.85;;;2.50;;
17175;SDS011;8703;48.996;9.594;2023-07-31T08:56:56;4.40;;;2.35;;
17175;SDS011;8703;48.996;9.594;2023-07-31T08:59:24;5.03;;;2.40;;
17175;SDS011;8703;48.996;9.594;2023-07-31T09:01:53;4.68;;;2.50;;
17175;SDS011;8703;48.996;9.594;2023-07-31T09:04:22;5.45;;;2.30;;
17175;SDS011;8703;48.996;9.594;2023-07-31T09:06:50;6.15;;;2.50;;
17175;SDS011;8703;48.996;9.594;2023-07-31T09:09:22;5.60;;;2.38;;
17175;SDS011;8703;48.996;9.594;2023-07-31T09:11:50;6.05;;;2.40;;
17175;SDS011;8703;48.996;9.594;2023-07-31T09:14:17;4.90;;;2.13;;
17175;SDS011;8703;48.996;9.594;2023-07-31T09:16:52;5.60;;;2.50;;
17175;SDS011;8703;48.996;9.594;2023-07-31T09:19:26;5.03;;;2.50;;
17175;SDS011;8703;48.996;9.594;2023-07-31T09:21:55;5.07;;;2.45;;
17175;SDS011;8703;48.996;9.594;2023-07-31T09:24:26;5.63;;;2.45;;
17175;SDS011;8703;48.996;9.594;2023-07-31T09:26:55;4.45;;;2.13;;
17175;SDS011;8703;48.996;9.594;2023-07-31T09:29:24;5.22;;;2.58;;
17175;SDS011;8703;48.996;9.594;2023-07-31T09:31:51;4.82;;;2.10;;
17175;SDS011;8703;48.996;9.594;2023-07-31T09:34:19;5.35;;;2.60;;
17175;SDS011;8703;48.996;9.594;2023-07-31T09:36:54;7.78;;;2.60;;
17175;SDS011;8703;48.996;9.594;2023-07-31T09:39:23;5.47;;;2.50;;
17175;SDS011;8703;48.996;9.594;2023-07-31T09:41:54;5.35;;;2.28;;
17175;SDS011;8703;48.996;9.594;2023-07-31T09:44:21;4.80;;;2.38;;
17175;SDS011;8703;48.996;9.594;2023-07-31T09:47:05;5.38;;;2.55;;
17175;SDS011;8703;48.996;9.594;2023-07-31T09:49:33;5.30;;;2.30;;
17175;SDS011;8703;48.996;9.594;2023-07-31T09:52:00;4.78;;;2.22;;
17175;SDS011;8703;48.996;9.594;2023-07-31T09:54:29;4.78;;;2.50;;
17175;SDS011;8703;48.996;9.594;2023-07-31T09:56:56;5.90;;;2.50;;
17175;SDS011;8703;48.996;9.594;2023-07-31T09:59:25;4.97;;;2.25;;
17175;SDS011;8703;48.996;9.594;2023-07-31T10:01:53;5.78;;;2.67;;
17175;SDS011;8703;48.996;9.594;2023-07-31T10:04:22;6.13;;;2.53;;
17175;SDS011;8703;48.996;9.594;2023-07-31T10:06:53;4.72;;;2.45;;
17175;SDS011;8703;48.996;9.594;2023-07-31T10:09:21;6.35;;;2.78;;
17175;SDS011;8703;48.996;9.594;2023-07-31T10:11:55;5.13;;;2.25;;
17175;SDS011;8703;48.996;9.594;2023-07-31T10:14:26;3.78;;;2.20;;
17175;SDS011;8703;48.996;9.594;2023-07-31T10:16:54;5.15;;;2.40;;
17175;SDS011;8703;48.996;9.594;2023-07-31T10:19:23;5.45;;;2.20;;
17175;SDS011;8703;48.996;9.594;2023-07-31T10:21:51;5.50;;;2.25;;
17175;SDS011;8703;48.996;9.594;2023-07-31T10:24:18;6.90;;;2.50;;
17175;SDS011;8703;48.996;9.594;2023-07-31T10:26:46;5.78;;;2.65;;
17175;SDS011;8703;48.996;9.594;2023-07-31T10:29:15;4.18;;;2.20;;
17175;SDS011;8703;48.996;9.594;2023-07-31T10:31:44;5.10;;;2.28;;
17175;SDS011;8703;48.996;9.594;2023-07-31T10:34:11;5.43;;;2.40;;
17175;SDS011;8703;48.996;9.594;2023-07-31T10:36:39;4.57;;;2.70;;
17175;SDS011;8703;48.996;9.594;2023-07-31T10:39:34;5.32;;;2.30;;
17175;SDS011;8703;48.996;9.594;2023-07-31T10:41:59;4.75;;;2.15;;
17175;SDS011;8703;48.996;9.594;2023-07-31T10:44:36;5.10;;;2.20;;
17175;SDS011;8703;48.996;9.594;2023-07-31T10:47:04;4.22;;;2.35;;
17175;SDS011;8703;48.996;9.594;2023-07-31T10:49:32;4.90;;;2.20;;
17175;SDS011;8703;48.996;9.594;2023-07-31T10:51:59;5.85;;;2.60;;
17175;SDS011;8703;48.996;9.594;2023-07-31T10:54:30;5.88;;;2.20;;
17175;SDS011;8703;48.996;9.594;2023-07-31T10:56:57;4.80;;;2.65;;
17175;SDS011;8703;48.996;9.594;2023-07-31T10:59:26;4.72;;;2.42;;
17175;SDS011;8703;48.996;9.594;2023-07-31T11:01:56;6.03;;;2.75;;
17175;SDS011;8703;48.996;9.594;2023-07-31T11:04:23;5.97;;;2.40;;
17175;SDS011;8703;48.996;9.594;2023-07-31T11:06:55;5.38;;;2.42;;
17175;SDS011;8703;48.996;9.594;2023-07-31T11:09:24;5.38;;;2.35;;
17175;SDS011;8703;48.996;9.594;2023-07-31T11:11:54;4.30;;;2.33;;
17175;SDS011;8703;48.996;9.594;2023-07-31T11:14:22;5.45;;;2.40;;
17175;SDS011;8703;48.996;9.594;2023-07-31T11:16:49;5.72;;;2.47;;
17175;SDS011;8703;48.996;9.594;2023-07-31T11:19:22;4.65;;;2.17;;
17175;SDS011;8703;48.996;9.594;2023-07-31T11:21:50;4.32;;;2.38;;
17175;SDS011;8703;48.996;9.594;2023-07-31T11:24:18;3.92;;;2.40;;
17175;SDS011;8703;48.996;9.594;2023-07-31T11:26:51;4.13;;;2.42;;
17175;SDS011;8703;48.996;9.594;2023-07-31T11:29:19;5.30;;;2.40;;
17175;SDS011;8703;48.996;9.594;2023-07-31T11:31:47;5.57;;;2.40;;
17175;SDS011;8703;48.996;9.594;2023-07-31T11:34:14;4.32;;;2.20;;
17175;SDS011;8703;48.996;9.594;2023-07-31T11:36:53;5.65;;;2.70;;
17175;SDS011;8703;48.996;9.594;2023-07-31T11:39:21;6.97;;;2.50;;
17175;SDS011;8703;48.996;9.594;2023-07-31T11:41:48;6.95;;;2.72;;
17175;SDS011;8703;48.996;9.594;2023-07-31T11:44:16;4.20;;;2.88;;
17175;SDS011;8703;48.996;9.594;2023-07-31T11:46:43;6.18;;;2.47;;
17175;SDS011;8703;48.996;9.594;2023-07-31T11:49:10;7.40;;;3.05;;
17175;SDS011;8703;48.996;9.594;2023-07-31T11:51:38;5.65;;;2.78;;
17175;SDS011;8703;48.996;9.594;2023-07-31T11:54:07;5.10;;;2.85;;
17175;SDS011;8703;48.996;9.594;2023-07-31T11:56:34;4.45;;;2.90;;
17175;SDS011;8703;48.996;9.594;2023-07-31T11:59:01;7.07;;;2.78;;
17175;SDS011;8703;48.996;9.594;2023-07-31T12:01:30;5.15;;;2.83;;
17175;SDS011;8703;48.996;9.594;2023-07-31T12:03:58;5.35;;;2.45;;
17175;SDS011;8703;48.996;9.594;2023-07-31T12:06:32;3.92;;;2.50;;
17175;SDS011;8703;48.996;9.594;2023-07-31T12:09:00;4.93;;;3.05;;
17175;SDS011;8703;48.996;9.594;2023-07-31T12:11:30;6.53;;;2.70;;
17175;SDS011;8703;48.996;9.594;2023-07-31T12:13:57;5.28;;;2.83;;
17175;SDS011;8703;48.996;9.594;2023-07-31T12:16:26;3.70;;;2.05;;
17175;SDS011;8703;48.996;9.594;2023-07-31T12:18:54;4.25;;;2.67;;
17175;SDS011;8703;48.996;9.594;2023-07-31T12:21:21;4.88;;;2.95;;
17175;SDS011;8703;48.996;9.594;2023-07-31T12:23:48;5.03;;;2.70;;
17175;SDS011;8703;48.996;9.594;2023-07-31T12:26:19;5.97;;;2.65;;
17175;SDS011;8703;48.996;9.594;2023-07-31T12:28:49;5.10;;;3.92;;
17175;SDS011;8703;48.996;9.594;2023-07-31T12:31:22;6.32;;;3.15;;
17175;SDS011;8703;48.996;9.594;2023-07-31T12:33:50;4.20;;;3.30;;
17175;SDS011;8703;48.996;9.594;2023-07-31T12:36:18;5.45;;;3.35;;
17175;SDS011;8703;48.996;9.594;2023-07-31T12:38:46;5.07;;;3.15;;
17175;SDS011;8703;48.996;9.594;2023-07-31T12:41:14;4.28;;;3.28;;
17175;SDS011;8703;48.996;9.594;2023-07-31T12:43:42;4.80;;;3.78;;
17175;SDS011;8703;48.996;9.594;2023-07-31T12:46:11;6.95;;;3.28;;
17175;SDS011;8703;48.996;9.594;2023-07-31T12:48:39;4.13;;;3.22;;
17175;SDS011;8703;48.996;9.594;2023-07-31T12:51:07;5.25;;;3.30;;
17175;SDS011;8703;48.996;9.594;2023-07-31T12:53:34;5.80;;;3.63;;
17175;SDS011;8703;48.996;9.594;2023-07-31T12:56:02;5.82;;;2.88;;
17175;SDS011;8703;48.996;9.594;2023-07-31T12:58:29;5.55;;;3.42;;
17175;SDS011;8703;48.996;9.594;2023-07-31T13:00:57;5.50;;;3.15;;
17175;SDS011;8703;48.996;9.594;2023-07-31T13:03:25;5.32;;;3.20;;
17175;SDS011;8703;48.996;9.594;2023-07-31T13:05:53;5.07;;;3.05;;
17175;SDS011;8703;48.996;9.594;2023-07-31T13:08:21;5.60;;;3.30;;
17175;SDS011;8703;48.996;9.594;2023-07-31T13:10:48;4.93;;;3.72;;
17175;SDS011;8703;48.996;9.594;2023-07-31T13:13:16;5.95;;;3.53;;
17175;SDS011;8703;48.996;9.594;2023-07-31T13:15:43;5.15;;;3.22;;
17175;SDS011;8703;48.996;9.594;2023-07-31T13:18:10;5.60;;;3.50;;
17175;SDS011;8703;48.996;9.594;2023-07-31T13:20:39;6.03;;;3.72;;
17175;SDS011;8703;48.996;9.594;2023-07-31T13:23:06;5.57;;;3.95;;
17175;SDS011;8703;48.996;9.594;2023-07-31T13:25:34;4.20;;;2.85;;
17175;SDS011;8703;48.996;9.594;2023-07-31T13:28:01;5.57;;;3.70;;
17175;SDS011;8703;48.996;9.594;2023-07-31T13:30:29;6.90;;;3.45;;
17175;SDS011;8703;48.996;9.594;2023-07-31T13:32:56;7.20;;;5.00;;
17175;SDS011;8703;48.996;9.594;2023-07-31T13:35:23;5.38;;;3.15;;
17175;SDS011;8703;48.996;9.594;2023-07-31T13:37:52;6.35;;;3.22;;
17175;SDS011;8703;48.996;9.594;2023-07-31T13:40:20;5.22;;;3.60;;
17175;SDS011;8703;48.996;9.594;2023-07-31T13:42:47;5.10;;;3.38;;
17175;SDS011;8703;48.996;9.594;2023-07-31T13:45:15;4.85;;;3.28;;
17175;SDS011;8703;48.996;9.594;2023-07-31T13:47:42;5.20;;;3.15;;
17175;SDS011;8703;48.996;9.594;2023-07-31T13:50:09;4.32;;;2.88;;
17175;SDS011;8703;48.996;9.594;2023-07-31T13:52:37;4.10;;;2.97;;
17175;SDS011;8703;48.996;9.594;2023-07-31T13:55:06;4.65;;;3.03;;
17175;SDS011;8703;48.996;9.594;2023-07-31T13:57:34;5.13;;;3.05;;
17175;SDS011;8703;48.996;9.594;2023-07-31T14:00:01;6.20;;;3.10;;
17175;SDS011;8703;48.996;9.594;2023-07-31T14:02:29;4.53;;;2.60;;
17175;SDS011;8703;48.996;9.594;2023-07-31T14:04:57;6.47;;;2.85;;
17175;SDS011;8703;48.996;9.594;2023-07-31T14:07:24;4.70;;;2.63;;
17175;SDS011;8703;48.996;9.594;2023-07-31T14:09:51;4.68;;;2.80;;
17175;SDS011;8703;48.996;9.594;2023-07-31T14:12:20;5.63;;;3.00;;
17175;SDS011;8703;48.996;9.594;2023-07-31T14:14:48;4.07;;;2.90;;
17175;SDS011;8703;48.996;9.594;2023-07-31T14:17:15;4.95;;;2.90;;
17175;SDS011;8703;48.996;9.594;2023-07-31T14:19:42;6.55;;;2.88;;
17175;SDS011;8703;48.996;9.594;2023-07-31T14:22:10;6.20;;;2.60;;
17175;SDS011;8703;48.996;9.594;2023-07-31T14:24:37;5.22;;;2.92;;
17175;SDS011;8703;48.996;9.594;2023-07-31T14:27:05;5.78;;;3.05;;
17175;SDS011;8703;48.996;9.594;2023-07-31T14:29:34;4.18;;;2.65;;
17175;SDS011;8703;48.996;9.594;2023-07-31T14:32:02;4.90;;;3.10;;
17175;SDS011;8703;48.996;9.594;2023-07-31T14:34:29;4.10;;;3.28;;
17175;SDS011;8703;48.996;9.594;2023-07-31T14:36:57;3.83;;;3.45;;
17175;SDS011;8703;48.996;9.594;2023-07-31T14:39:24;5.53;;;3.30;;
17175;SDS011;8703;48.996;9.594;2023-07-31T14:41:51;4.85;;;3.42;;
17175;SDS011;8703;48.996;9.594;2023-07-31T14:44:19;3.65;;;2.90;;
17175;SDS011;8703;48.996;9.594;2023-07-31T14:46:47;8.60;;;3.58;;
17175;SDS011;8703;48.996;9.594;2023-07-31T14:49:15;4.75;;;2.72;;
17175;SDS011;8703;48.996;9.594;2023-07-31T14:51:42;4.85;;;2.92;;
17175;SDS011;8703;48.996;9.594;2023-07-31T14:54:09;5.80;;;3.00;;
17175;SDS011;8703;48.996;9.594;2023-07-31T14:56:37;3.85;;;2.97;;
17175;SDS011;8703;48.996;9.594;2023-07-31T14:59:04;5.32;;;3.50;;
17175;SDS011;8703;48.996;9.594;2023-07-31T15:01:33;5.85;;;3.05;;
17175;SDS011;8703;48.996;9.594;2023-07-31T15:04:01;5.22;;;3.05;;
17175;SDS011;8703;48.996;9.594;2023-07-31T15:06:29;4.47;;;2.42;;